Details From OIBL - Bandar Lengeh
To OIKB - Bandar Abbass Intl
Flight Number -
Tags Decoded
Created
Modified
Stats Distance 93 nm / 172 km
Max Altitude 0 ft / 0 m
Waypoints 2
Social Downloads 1
Likes 0
Share VATSIM

Download

Looking for another format? Having issues loading an existing format? Contact us
Advertisement - Login to hide

Notes

Decoded

Route

OIBL OIKB

ID Type Via Altitude Latitude Longitude Leg Dist Tot Dist Heading (true) Name
O OIBL APT - 0 ft / 0 m 26.53043˚ 54.81242˚ - 0 nm - -
O OIKB APT - 0 ft / 0 m 27.20505˚ 56.36861˚ 92 nm 92 nm 64° / 64° -

Altitude Profile

Advertisement - Login to hide

OIBL

Details ICAO OIBL (BDH)
Name BANDAR LENGEH
Region Iran
Timezone Asia/Tehran (UTC+4.5)
Stats Elevation 67 ft / 20 m (AMSL)
Location 26.532269° 54.824801°
Runways 1
Magnetic Variation 2.360° E

METAR

OIBL 222100Z 32006KT 8000 NSC 33/03 Q1007

Decode

TAF

Not found

Departure Runways

ID Width Length Bearing (true) Bearing (mag) Surface Threshold Offset Overrun Length
08 148 ft / 45 m 8,192 ft / 2,497 m 80.57° 78.21° Asphalt 0 ft / 0 m 469 ft / 143 m
26 148 ft / 45 m 8,192 ft / 2,497 m 260.58° 258.22° Asphalt 0 ft / 0 m 479 ft / 146 m

OIKB

Details ICAO OIKB (BND)
Name BANDAR ABBASS INTL
Region Iran
Timezone Asia/Tehran (UTC+4.5)
Stats Elevation 22 ft / 7 m (AMSL)
Location 27.218316° 56.377852°
Runways 2
Magnetic Variation 2.338° E

METAR

OIKB 222200Z 01006KT CAVOK 28/23 Q1007 A2975

Decode

TAF

TAF OIKB 221730Z 2218/2324 08004MPS 7000 NSC TEMPO 2220/2303 3000 BR/HZ TEMPO 2310/2318 24010MPS 3000 SA

Decode

Destination Runways

ID Width Length Bearing (true) Bearing (mag) Surface Threshold Offset Overrun Length
03L 98 ft / 30 m 11,370 ft / 3,466 m 27.64° 25.30° Asphalt 0 ft / 0 m 984 ft / 300 m
03R 148 ft / 45 m 12,040 ft / 3,670 m 27.64° 25.30° Asphalt 0 ft / 0 m 1,198 ft / 365 m
21L 148 ft / 45 m 12,040 ft / 3,670 m 207.65° 205.31° Asphalt 0 ft / 0 m 1,198 ft / 365 m
21R 98 ft / 30 m 11,370 ft / 3,466 m 207.64° 205.30° Asphalt 0 ft / 0 m 0 ft / 0 m

Approach Navaids

Runway Type Ident Frequency Range Bearing (true) Bearing (mag) Slope Elevation
21L Localiser IBND 109.90 MHz 18 nm / 33 km 208.03° 205.69° - 3 ft / 1 m (AMSL)
21L Glidescope IBND 109.90 MHz 10 nm / 19 km 207.64° 205.30° 2.98° 12 ft / 4 m (AMSL)
21L DME IBND 109.90 MHz 18 nm / 33 km - - - 12 ft / 4 m (AMSL)